Portada
METAR-TAF:

METAR-TAF

Aeropuertos :

Aeropuerto Internacional de Seychelles

Victoria, Mahé, Seychelles

latitud: 04-40S, longitud: 055-31E, altitud: 3 m

Observación

El informe se hizo hace 15 horas y 15 minutos, a las 05:00 UTC
Viento 14 kt del este-sureste con ráfagas de 24 kt
Temperatura 26°C
Humedad 84%
Presión 1014 hPa
Visibilidad 10 km o más
Escasas nubes a una altura de 1500 ft

METAR: FSIA 210500Z 12014G24KT 9999 R13///// FEW015 26/23 Q1014 NOSIG

Hora: 00:15 (20:15 UTC)

Pronóstico

El informe se hizo hace 15 horas y 15 minutos, a las 05:00 UTC
Pronóstico válido del 21 a las 06 UTC al 22 a las 06 UTC
Viento 15 kt del este-sureste con ráfagas de 25 kt
Visibilidad 10 km o más
Nubes dispersas a una altura de 1800 ft

TAF: FSIA 210500Z 2106/2206 12015G25KT 9999 SCT018

Observaciones y pronósticos meteorológicos de más de 4000 aeropuertos (mensajes METAR y TAF).

Los puntos amarillos y rojos representan las estaciones disponibles.

Ponga el ratón en el punto deseado para ver el nombre de la estación.

Haga clic para ver las observaciones y los pronósticos meteorológicos.

Para cambiar el mapa : haga clic en los botones verdes con una cruz de color negro para hacer un zoom, en el botón verde con un guión para alejar o en las flechas verdes para mapas adyacentes.


METAR-TAF: